createdAt,value
2022-09-30T00:01:33.035Z,100.00
2022-09-30T00:03:38.252Z,100.00
2022-09-30T00:05:42.117Z,100.00
2022-09-30T00:07:45.962Z,100.00
2022-09-30T00:09:50.036Z,100.00
2022-09-30T00:11:54.507Z,100.00
2022-09-30T00:13:58.414Z,100.00
2022-09-30T00:16:03.382Z,100.00
2022-09-30T00:18:07.064Z,100.00
2022-09-30T00:20:12.243Z,100.00
2022-09-30T00:22:16.281Z,100.00
2022-09-30T00:24:20.173Z,100.00
2022-09-30T00:26:25.324Z,100.00
2022-09-30T00:28:29.626Z,100.00
2022-09-30T00:30:34.369Z,100.00
2022-09-30T00:32:37.996Z,100.00
2022-09-30T00:34:42.098Z,100.00
2022-09-30T00:36:49.947Z,100.00
2022-09-30T00:38:53.609Z,100.00
2022-09-30T00:40:59.937Z,100.00
2022-09-30T00:43:05.018Z,100.00
2022-09-30T00:45:12.450Z,100.00
2022-09-30T00:47:46.129Z,100.00
2022-09-30T00:49:50.664Z,100.00
2022-09-30T00:51:58.860Z,100.00
2022-09-30T00:54:06.050Z,100.00
2022-09-30T00:56:12.930Z,100.00
2022-09-30T00:58:22.784Z,100.00
2022-09-30T01:00:26.769Z,100.00
2022-09-30T01:02:30.953Z,100.00
2022-09-30T01:04:36.902Z,100.00
2022-09-30T01:06:41.002Z,100.00
2022-09-30T01:08:48.262Z,100.00
2022-09-30T01:10:51.853Z,100.00
2022-09-30T01:12:55.970Z,100.00
2022-09-30T01:15:01.784Z,100.00
2022-09-30T01:17:10.892Z,100.00
2022-09-30T01:19:39.507Z,100.00
2022-09-30T01:22:00.904Z,100.00
2022-09-30T01:24:47.558Z,100.00
2022-09-30T01:27:13.464Z,100.00
2022-09-30T01:29:52.440Z,100.00
2022-09-30T01:32:05.666Z,100.00
2022-09-30T01:34:15.834Z,100.00
2022-09-30T01:36:34.624Z,100.00
2022-09-30T01:38:48.770Z,100.00
2022-09-30T01:41:03.411Z,100.00
2022-09-30T01:43:13.780Z,100.00
2022-09-30T01:45:20.954Z,100.00
2022-09-30T01:47:30.447Z,100.00
2022-09-30T01:49:40.698Z,100.00
2022-09-30T01:51:53.755Z,100.00
2022-09-30T01:54:01.863Z,100.00
2022-09-30T01:56:09.623Z,100.00
2022-09-30T01:58:18.860Z,100.00
2022-09-30T02:00:22.669Z,100.00
2022-09-30T02:02:31.236Z,100.00
2022-09-30T02:04:40.666Z,100.00
2022-09-30T02:06:49.544Z,100.00
2022-09-30T02:08:58.450Z,100.00
2022-09-30T02:11:08.429Z,100.00
2022-09-30T02:13:16.804Z,100.00
2022-09-30T02:15:23.937Z,100.00
2022-09-30T02:17:33.176Z,100.00
2022-09-30T02:19:40.907Z,100.00
2022-09-30T02:21:48.708Z,100.00
2022-09-30T02:23:56.953Z,100.00
2022-09-30T02:26:06.091Z,100.00
2022-09-30T02:28:15.989Z,100.00
2022-09-30T02:30:19.938Z,100.00
2022-09-30T02:32:27.483Z,100.00
2022-09-30T02:34:37.732Z,100.00
2022-09-30T02:36:46.155Z,100.00
2022-09-30T02:38:56.375Z,100.00
2022-09-30T02:41:06.628Z,100.00
2022-09-30T02:43:11.300Z,100.00
2022-09-30T02:45:18.309Z,100.00
2022-09-30T02:47:30.467Z,100.00
2022-09-30T02:49:41.537Z,100.00
2022-09-30T02:51:57.171Z,100.00
2022-09-30T02:54:08.701Z,100.00
2022-09-30T02:56:26.106Z,100.00
2022-09-30T02:58:33.915Z,100.00
2022-09-30T03:00:37.311Z,100.00
2022-09-30T03:02:40.973Z,100.00
2022-09-30T03:04:47.479Z,100.00
2022-09-30T03:06:51.044Z,99.61
2022-09-30T03:08:54.774Z,98.91
2022-09-30T03:10:58.212Z,98.84
2022-09-30T03:13:19.642Z,98.77
2022-09-30T03:15:42.369Z,98.42
2022-09-30T03:18:16.134Z,95.99
2022-09-30T03:20:49.284Z,95.99
2022-09-30T03:23:13.259Z,96.33
2022-09-30T03:25:28.479Z,95.11
2022-09-30T03:27:38.591Z,94.09
2022-09-30T03:29:48.714Z,93.93
2022-09-30T03:32:03.060Z,94.25
2022-09-30T03:34:19.733Z,93.97
2022-09-30T03:36:29.120Z,92.71
2022-09-30T03:38:42.888Z,92.50
2022-09-30T03:40:56.025Z,92.47
2022-09-30T03:43:06.314Z,92.15
2022-09-30T03:45:16.170Z,91.87
2022-09-30T03:47:23.358Z,91.91
2022-09-30T03:49:32.090Z,92.22
2022-09-30T03:51:39.869Z,92.46
2022-09-30T03:53:44.278Z,91.82
2022-09-30T03:55:49.992Z,91.96
2022-09-30T03:57:54.560Z,91.50
2022-09-30T03:59:58.037Z,91.03
2022-09-30T04:02:01.358Z,91.21
2022-09-30T04:04:04.732Z,91.53
2022-09-30T04:06:12.655Z,90.29
2022-09-30T04:08:17.782Z,90.03
2022-09-30T04:10:21.121Z,90.70
2022-09-30T04:12:24.389Z,90.58
2022-09-30T04:14:27.633Z,90.39
2022-09-30T04:16:31.884Z,90.95
2022-09-30T04:18:37.392Z,91.63
2022-09-30T04:20:40.811Z,91.35
2022-09-30T04:22:44.183Z,91.59
2022-09-30T04:24:48.796Z,91.49
2022-09-30T04:26:52.924Z,91.39
2022-09-30T04:28:58.759Z,91.71
2022-09-30T04:31:02.237Z,91.38
2022-09-30T04:33:05.517Z,91.82
2022-09-30T04:35:09.317Z,91.98
2022-09-30T04:37:13.962Z,92.42
2022-09-30T04:39:17.244Z,92.11
2022-09-30T04:41:22.254Z,92.76
2022-09-30T04:43:26.923Z,92.67
2022-09-30T04:45:30.373Z,92.92
2022-09-30T04:47:33.622Z,93.29
2022-09-30T04:49:37.168Z,92.95
2022-09-30T04:51:44.045Z,93.21
2022-09-30T04:53:47.999Z,93.51
2022-09-30T04:55:51.405Z,93.34
2022-09-30T04:57:56.024Z,93.58
2022-09-30T04:59:59.563Z,93.67
2022-09-30T05:02:03.246Z,94.15
2022-09-30T05:04:06.566Z,94.57
2022-09-30T05:06:10.773Z,94.67
2022-09-30T05:08:14.161Z,94.64
2022-09-30T05:10:17.678Z,95.19
2022-09-30T05:12:20.995Z,95.31
2022-09-30T05:14:25.612Z,96.27
2022-09-30T05:16:29.155Z,96.20
2022-09-30T05:18:34.199Z,96.59
2022-09-30T05:20:37.433Z,97.19
2022-09-30T05:22:40.777Z,97.93
2022-09-30T05:24:44.281Z,97.87
2022-09-30T05:26:47.568Z,98.69
2022-09-30T05:28:50.926Z,98.94
2022-09-30T05:30:59.657Z,99.64
2022-09-30T05:33:03.037Z,100.00
2022-09-30T05:35:06.991Z,100.00
2022-09-30T05:37:10.793Z,100.00
2022-09-30T05:39:14.298Z,100.00
2022-09-30T05:41:19.684Z,100.00
2022-09-30T05:43:23.958Z,100.00
2022-09-30T05:45:28.186Z,100.00
2022-09-30T05:47:32.877Z,100.00
2022-09-30T05:49:36.073Z,100.00
2022-09-30T05:51:39.681Z,100.00
2022-09-30T05:53:43.659Z,100.00
2022-09-30T05:55:48.128Z,100.00
2022-09-30T05:57:53.141Z,100.00
2022-09-30T05:59:57.925Z,100.00
2022-09-30T06:02:01.625Z,100.00
2022-09-30T06:04:06.497Z,100.00
2022-09-30T06:06:09.862Z,100.00
2022-09-30T06:08:13.716Z,100.00
2022-09-30T06:10:17.010Z,100.00
2022-09-30T06:12:20.351Z,100.00
2022-09-30T06:14:23.561Z,100.00
2022-09-30T06:16:26.946Z,100.00
2022-09-30T06:18:31.210Z,100.00
2022-09-30T06:20:35.988Z,100.00
2022-09-30T06:22:39.533Z,100.00
2022-09-30T06:24:43.007Z,100.00
2022-09-30T06:26:46.280Z,100.00
2022-09-30T06:28:50.430Z,100.00
2022-09-30T06:30:53.666Z,100.00
2022-09-30T06:32:58.407Z,100.00
2022-09-30T06:35:03.331Z,100.00
2022-09-30T06:37:08.001Z,100.00
2022-09-30T06:39:13.703Z,100.00
2022-09-30T06:41:18.010Z,100.00
2022-09-30T06:43:22.036Z,100.00
2022-09-30T06:45:32.156Z,100.00
2022-09-30T06:47:36.141Z,100.00
2022-09-30T06:49:48.002Z,100.00
2022-09-30T06:51:52.466Z,100.00
2022-09-30T06:53:57.415Z,100.00
2022-09-30T06:56:00.817Z,100.00
2022-09-30T06:58:04.432Z,100.00
2022-09-30T07:00:09.191Z,100.00
2022-09-30T07:02:13.489Z,100.00
2022-09-30T07:04:17.036Z,100.00
2022-09-30T07:06:20.372Z,100.00
2022-09-30T07:08:25.911Z,100.00
2022-09-30T07:10:30.714Z,100.00
2022-09-30T07:12:34.565Z,100.00
2022-09-30T07:14:38.250Z,100.00
2022-09-30T07:16:44.847Z,100.00
2022-09-30T07:18:48.388Z,100.00
2022-09-30T07:20:53.461Z,100.00
2022-09-30T07:22:59.003Z,100.00
2022-09-30T07:25:04.232Z,100.00
2022-09-30T07:27:09.032Z,100.00
2022-09-30T07:29:14.037Z,100.00
2022-09-30T07:31:32.565Z,100.00
2022-09-30T07:33:36.737Z,100.00
2022-09-30T07:35:39.975Z,100.00
2022-09-30T07:37:43.290Z,100.00
2022-09-30T07:39:49.057Z,100.00
2022-09-30T07:41:55.034Z,100.00
2022-09-30T07:43:59.993Z,100.00
2022-09-30T07:46:09.154Z,100.00
2022-09-30T07:48:32.788Z,100.00
2022-09-30T07:50:35.815Z,100.00
2022-09-30T07:52:39.533Z,100.00
2022-09-30T07:54:49.539Z,100.00
2022-09-30T07:57:11.102Z,100.00
2022-09-30T07:59:16.692Z,100.00
2022-09-30T08:01:20.200Z,100.00
2022-09-30T08:03:23.505Z,100.00
2022-09-30T08:05:26.750Z,100.00
2022-09-30T08:07:30.221Z,100.00
2022-09-30T08:09:33.590Z,100.00
2022-09-30T08:11:38.370Z,100.00
2022-09-30T08:13:42.030Z,100.00
2022-09-30T08:15:46.783Z,100.00
2022-09-30T08:17:50.056Z,100.00
2022-09-30T08:19:53.418Z,100.00
2022-09-30T08:21:56.814Z,100.00
2022-09-30T08:24:00.201Z,100.00
2022-09-30T08:26:05.234Z,100.00
2022-09-30T08:28:09.020Z,100.00
2022-09-30T08:30:13.274Z,100.00
2022-09-30T08:32:18.089Z,100.00
2022-09-30T08:34:21.750Z,100.00
2022-09-30T08:36:27.579Z,100.00
2022-09-30T08:38:31.129Z,100.00
2022-09-30T08:40:40.583Z,100.00
2022-09-30T08:43:04.439Z,100.00
2022-09-30T08:45:18.506Z,100.00
2022-09-30T08:47:40.052Z,100.00
2022-09-30T08:49:55.882Z,100.00
2022-09-30T08:52:01.427Z,100.00
2022-09-30T08:54:08.219Z,100.00
2022-09-30T08:56:21.920Z,100.00
2022-09-30T08:58:29.574Z,100.00
2022-09-30T09:00:33.245Z,100.00
2022-09-30T09:02:45.321Z,100.00
2022-09-30T09:04:52.741Z,100.00
2022-09-30T09:07:06.768Z,100.00
2022-09-30T09:09:32.974Z,100.00
2022-09-30T09:12:01.081Z,100.00
2022-09-30T09:14:09.440Z,100.00
2022-09-30T09:16:21.314Z,100.00
2022-09-30T09:18:53.655Z,100.00
2022-09-30T09:21:00.018Z,100.00
2022-09-30T09:23:05.501Z,100.00
2022-09-30T09:25:14.603Z,100.00
2022-09-30T09:27:25.001Z,100.00
2022-09-30T09:29:40.958Z,100.00
2022-09-30T09:31:44.519Z,100.00
2022-09-30T09:33:48.438Z,100.00
2022-09-30T09:35:59.768Z,100.00
2022-09-30T09:38:26.763Z,100.00
2022-09-30T09:40:40.219Z,100.00
2022-09-30T09:42:58.905Z,100.00
2022-09-30T09:45:05.973Z,100.00
2022-09-30T09:47:15.233Z,100.00
2022-09-30T09:49:36.442Z,100.00
2022-09-30T09:51:47.388Z,100.00
2022-09-30T09:53:53.047Z,100.00
2022-09-30T09:56:00.283Z,100.00
2022-09-30T09:58:09.169Z,100.00
2022-09-30T10:00:31.646Z,100.00
2022-09-30T10:02:35.034Z,100.00
2022-09-30T10:04:51.123Z,100.00
2022-09-30T10:07:00.027Z,100.00
2022-09-30T10:09:03.415Z,100.00
2022-09-30T10:11:08.774Z,100.00
2022-09-30T10:13:18.063Z,100.00
2022-09-30T10:15:23.483Z,100.00
2022-09-30T10:17:30.209Z,100.00
2022-09-30T10:19:35.815Z,100.00
2022-09-30T10:21:39.099Z,100.00
2022-09-30T10:23:43.793Z,100.00
2022-09-30T10:26:00.700Z,100.00
2022-09-30T10:28:21.613Z,100.00
2022-09-30T10:30:39.613Z,100.00
2022-09-30T10:32:42.875Z,100.00
2022-09-30T10:34:46.321Z,100.00
2022-09-30T10:36:50.324Z,100.00
2022-09-30T10:39:03.979Z,100.00
2022-09-30T10:41:10.177Z,100.00
2022-09-30T10:43:23.090Z,100.00
2022-09-30T10:45:32.908Z,100.00
2022-09-30T10:47:37.400Z,100.00
2022-09-30T10:49:46.729Z,100.00
2022-09-30T10:51:50.143Z,100.00
2022-09-30T10:53:53.596Z,100.00
2022-09-30T10:55:58.556Z,100.00
2022-09-30T10:58:21.094Z,100.00
2022-09-30T11:00:27.628Z,100.00
2022-09-30T11:02:37.018Z,100.00
2022-09-30T11:04:47.977Z,100.00
2022-09-30T11:06:55.554Z,100.00
2022-09-30T11:09:03.229Z,100.00
2022-09-30T11:11:14.370Z,100.00
2022-09-30T11:13:23.222Z,100.00
2022-09-30T11:15:34.473Z,100.00
2022-09-30T11:17:43.228Z,100.00
2022-09-30T11:19:52.556Z,100.00
2022-09-30T11:22:00.386Z,100.00
2022-09-30T11:24:09.581Z,100.00
2022-09-30T11:26:25.548Z,100.00
2022-09-30T11:28:45.036Z,100.00
2022-09-30T11:30:57.930Z,100.00
2022-09-30T11:33:19.247Z,100.00
2022-09-30T11:35:45.379Z,100.00
2022-09-30T11:38:02.981Z,100.00
2022-09-30T11:40:31.924Z,100.00
2022-09-30T11:42:43.992Z,100.00
2022-09-30T11:44:48.429Z,100.00
2022-09-30T11:47:33.382Z,100.00
2022-09-30T11:50:06.098Z,100.00
2022-09-30T11:52:17.645Z,100.00
2022-09-30T11:54:35.299Z,100.00
2022-09-30T11:56:48.466Z,100.00
2022-09-30T11:58:55.379Z,100.00
2022-09-30T12:01:07.699Z,100.00
2022-09-30T12:03:17.722Z,100.00
2022-09-30T12:05:25.414Z,100.00
2022-09-30T12:07:40.213Z,100.00
2022-09-30T12:09:48.912Z,100.00
2022-09-30T12:11:57.924Z,100.00
2022-09-30T12:14:06.862Z,100.00
2022-09-30T12:16:16.295Z,100.00
2022-09-30T12:18:24.108Z,100.00
2022-09-30T12:20:31.718Z,100.00
2022-09-30T12:22:40.748Z,100.00
2022-09-30T12:24:45.828Z,100.00
2022-09-30T12:26:49.649Z,100.00
2022-09-30T12:29:16.337Z,100.00
2022-09-30T12:32:01.668Z,100.00
2022-09-30T12:34:22.271Z,100.00
2022-09-30T12:36:41.258Z,100.00
2022-09-30T12:39:12.574Z,100.00
2022-09-30T12:41:39.397Z,100.00
2022-09-30T12:44:17.227Z,100.00
2022-09-30T12:46:41.036Z,100.00
2022-09-30T12:48:51.792Z,100.00
2022-09-30T12:50:58.526Z,100.00
2022-09-30T12:53:14.663Z,100.00
2022-09-30T12:55:28.402Z,100.00
2022-09-30T12:57:36.731Z,100.00
2022-09-30T12:59:48.755Z,100.00
2022-09-30T13:01:52.785Z,100.00
2022-09-30T13:07:25.129Z,100.00
2022-09-30T13:09:35.582Z,100.00
2022-09-30T13:11:42.314Z,100.00
2022-09-30T13:14:01.162Z,100.00
2022-09-30T13:16:06.949Z,100.00
2022-09-30T13:18:48.047Z,100.00
2022-09-30T13:20:55.557Z,100.00
2022-09-30T13:23:00.663Z,100.00
2022-09-30T13:25:14.605Z,100.00
2022-09-30T13:27:18.352Z,100.00
2022-09-30T13:29:40.148Z,98.53
2022-09-30T13:32:05.762Z,98.44
2022-09-30T13:34:13.606Z,98.15
2022-09-30T13:36:29.459Z,98.53
2022-09-30T13:38:41.796Z,97.69
2022-09-30T13:41:01.867Z,96.76
2022-09-30T13:43:06.958Z,95.89
2022-09-30T13:45:17.819Z,95.78
2022-09-30T13:47:29.273Z,93.85
2022-09-30T13:49:44.040Z,94.43
2022-09-30T13:51:48.900Z,93.31
2022-09-30T13:53:57.298Z,92.75
2022-09-30T13:56:06.704Z,92.72
2022-09-30T13:58:30.762Z,91.63
2022-09-30T14:00:51.315Z,90.83
2022-09-30T14:03:22.293Z,90.70
2022-09-30T14:05:43.789Z,91.18
2022-09-30T14:08:06.309Z,92.45
2022-09-30T14:10:29.259Z,92.79
2022-09-30T14:12:45.785Z,91.97
2022-09-30T14:15:09.589Z,91.36
2022-09-30T14:17:30.373Z,91.71
2022-09-30T14:20:02.829Z,90.15
2022-09-30T14:22:08.981Z,89.31
2022-09-30T14:24:16.371Z,88.00
2022-09-30T14:26:43.060Z,88.15
2022-09-30T14:28:55.480Z,89.42
2022-09-30T14:31:09.744Z,89.27
2022-09-30T14:33:24.665Z,89.81
2022-09-30T14:35:30.148Z,90.12
2022-09-30T14:37:38.711Z,88.68
2022-09-30T14:39:43.357Z,87.65
2022-09-30T14:41:54.595Z,84.77
2022-09-30T14:44:03.145Z,84.01
2022-09-30T14:46:10.354Z,84.20
2022-09-30T14:48:18.679Z,82.26
2022-09-30T14:50:26.342Z,82.81
2022-09-30T14:52:38.561Z,83.59
2022-09-30T14:54:49.052Z,80.06
2022-09-30T14:56:55.520Z,79.69
2022-09-30T14:59:01.197Z,77.14
2022-09-30T15:01:08.513Z,75.29
2022-09-30T15:03:14.404Z,74.86
2022-09-30T15:05:19.649Z,74.60
2022-09-30T15:07:23.778Z,73.97
2022-09-30T15:09:32.703Z,74.11
2022-09-30T15:11:39.709Z,74.57
2022-09-30T15:13:45.346Z,75.25
2022-09-30T15:15:49.084Z,75.17
2022-09-30T15:17:55.689Z,76.14
2022-09-30T15:20:00.284Z,77.05
2022-09-30T15:22:06.540Z,78.12
2022-09-30T15:24:12.539Z,79.13
2022-09-30T15:26:17.115Z,79.70
2022-09-30T15:28:20.964Z,79.46
2022-09-30T15:30:29.524Z,80.12
2022-09-30T15:32:35.803Z,79.81
2022-09-30T15:34:40.061Z,79.43
2022-09-30T15:36:45.162Z,77.88
2022-09-30T15:38:51.863Z,78.84
2022-09-30T15:41:00.822Z,79.90
2022-09-30T15:43:07.429Z,79.66
2022-09-30T15:45:35.018Z,80.20
2022-09-30T15:47:56.385Z,79.93
2022-09-30T15:50:01.102Z,79.79
2022-09-30T15:52:30.741Z,79.64
2022-09-30T15:54:39.525Z,79.78
2022-09-30T15:56:46.463Z,79.69
2022-09-30T15:58:57.541Z,80.48
2022-09-30T16:01:15.823Z,81.12
2022-09-30T16:03:29.265Z,82.31
2022-09-30T16:05:33.884Z,82.96
2022-09-30T16:07:37.676Z,83.26
2022-09-30T16:09:42.979Z,84.07
2022-09-30T16:11:54.292Z,84.65
2022-09-30T16:13:59.938Z,85.16
2022-09-30T16:16:04.028Z,86.11
2022-09-30T16:18:20.436Z,87.19
2022-09-30T16:20:26.458Z,87.81
2022-09-30T16:22:49.674Z,87.77
2022-09-30T16:25:02.877Z,87.72
2022-09-30T16:27:23.813Z,86.16
2022-09-30T16:29:28.718Z,85.25
2022-09-30T16:31:34.309Z,84.87
2022-09-30T16:33:43.948Z,84.99
2022-09-30T16:35:48.820Z,85.35
2022-09-30T16:37:59.507Z,85.24
2022-09-30T16:40:16.681Z,85.64
2022-09-30T16:42:20.992Z,85.83
2022-09-30T16:44:24.733Z,85.25
2022-09-30T16:46:28.844Z,85.84
2022-09-30T16:48:32.757Z,86.41
2022-09-30T16:50:41.744Z,87.20
2022-09-30T16:52:45.400Z,87.62
2022-09-30T16:54:49.170Z,88.41
2022-09-30T16:56:53.477Z,89.10
2022-09-30T16:59:00.347Z,89.38
2022-09-30T17:01:04.509Z,89.51
2022-09-30T17:03:08.503Z,89.46
2022-09-30T17:05:16.354Z,89.79
2022-09-30T17:07:21.715Z,90.34
2022-09-30T17:09:26.745Z,90.44
2022-09-30T17:11:33.439Z,90.55
2022-09-30T17:13:37.272Z,90.33
2022-09-30T17:15:42.760Z,90.54
2022-09-30T17:17:46.674Z,90.07
2022-09-30T17:19:50.501Z,90.06
2022-09-30T17:21:54.199Z,90.23
2022-09-30T17:23:59.704Z,90.38
2022-09-30T17:26:06.171Z,90.07
2022-09-30T17:28:11.327Z,89.87
2022-09-30T17:30:15.786Z,89.90
2022-09-30T17:32:19.649Z,89.22
2022-09-30T17:34:24.281Z,89.09
2022-09-30T17:36:27.909Z,88.77
2022-09-30T17:38:32.084Z,89.78
2022-09-30T17:40:54.667Z,89.65
2022-09-30T17:43:11.259Z,90.33
2022-09-30T17:45:15.380Z,90.50
2022-09-30T17:47:19.084Z,90.05
2022-09-30T17:49:24.304Z,90.16
2022-09-30T17:51:28.066Z,89.69
2022-09-30T17:53:31.977Z,90.01
2022-09-30T17:55:37.120Z,89.34
2022-09-30T17:57:41.023Z,89.74
2022-09-30T17:59:46.771Z,89.17
2022-09-30T18:01:51.209Z,89.56
2022-09-30T18:03:59.550Z,89.25
2022-09-30T18:06:04.112Z,89.27
2022-09-30T18:08:07.871Z,88.96
2022-09-30T18:10:12.896Z,88.89
2022-09-30T18:12:18.445Z,88.98
2022-09-30T18:14:22.213Z,89.15
2022-09-30T18:16:30.456Z,88.98
2022-09-30T18:18:35.981Z,89.38
2022-09-30T18:20:45.062Z,89.05
2022-09-30T18:22:49.143Z,88.98
2022-09-30T18:25:09.830Z,89.09
2022-09-30T18:27:13.893Z,88.78
2022-09-30T18:29:20.536Z,89.72
2022-09-30T18:31:29.148Z,89.57
2022-09-30T18:33:32.849Z,89.85
2022-09-30T18:35:38.658Z,89.03
2022-09-30T18:37:43.391Z,88.73
2022-09-30T18:39:47.114Z,89.25
2022-09-30T18:41:50.678Z,89.04
2022-09-30T18:43:59.956Z,89.24
2022-09-30T18:46:05.574Z,89.51
2022-09-30T18:48:11.147Z,90.04
2022-09-30T18:50:16.368Z,89.92
2022-09-30T18:52:20.140Z,90.56
2022-09-30T18:54:24.494Z,90.98
2022-09-30T18:56:32.153Z,91.35
2022-09-30T18:58:37.031Z,91.47
2022-09-30T19:00:41.334Z,91.90
2022-09-30T19:02:46.824Z,91.54
2022-09-30T19:04:50.792Z,92.27
2022-09-30T19:06:54.546Z,92.37
2022-09-30T19:08:59.171Z,93.62
2022-09-30T19:11:13.035Z,93.61
2022-09-30T19:13:17.002Z,94.19
2022-09-30T19:15:21.122Z,93.72
2022-09-30T19:17:26.556Z,93.31
2022-09-30T19:19:32.540Z,93.17
2022-09-30T19:21:37.193Z,92.95
2022-09-30T19:23:41.257Z,93.48
2022-09-30T19:25:45.632Z,92.58
2022-09-30T19:27:50.282Z,91.70
2022-09-30T19:29:58.568Z,91.41
2022-09-30T19:32:03.915Z,91.93
2022-09-30T19:34:08.545Z,91.80
2022-09-30T19:36:15.392Z,92.50
2022-09-30T19:38:24.450Z,93.30
2022-09-30T19:42:42.834Z,93.91
2022-09-30T19:44:46.739Z,93.81
2022-09-30T19:46:51.760Z,94.75
2022-09-30T19:48:56.049Z,94.73
2022-09-30T19:51:00.355Z,95.25
2022-09-30T19:53:05.591Z,95.95
2022-09-30T19:55:16.306Z,95.52
2022-09-30T19:57:20.819Z,95.96
2022-09-30T19:59:25.936Z,95.50
2022-09-30T20:01:31.374Z,95.32
2022-09-30T20:03:36.802Z,95.95
2022-09-30T20:05:44.207Z,95.35
2022-09-30T20:07:51.435Z,94.90
2022-09-30T20:09:57.237Z,95.98
2022-09-30T20:12:01.042Z,95.87
2022-09-30T20:14:24.118Z,95.24
2022-09-30T20:16:28.243Z,95.58
2022-09-30T20:18:32.686Z,95.80
2022-09-30T20:20:35.359Z,95.14
2022-09-30T20:22:39.402Z,94.82
2022-09-30T20:24:43.215Z,95.03
2022-09-30T20:26:50.462Z,95.38
2022-09-30T20:28:57.973Z,94.94
2022-09-30T20:31:07.573Z,94.93
2022-09-30T20:33:11.384Z,94.47
2022-09-30T20:35:15.055Z,93.90
2022-09-30T20:37:18.939Z,94.20
2022-09-30T20:39:23.913Z,94.23
2022-09-30T20:41:28.478Z,94.93
2022-09-30T20:43:35.851Z,94.81
2022-09-30T20:45:41.246Z,95.32
2022-09-30T20:47:46.107Z,95.24
2022-09-30T20:49:49.923Z,95.34
2022-09-30T20:51:53.607Z,96.32
2022-09-30T20:53:59.109Z,95.48
2022-09-30T20:56:03.256Z,95.39
2022-09-30T20:58:08.776Z,94.98
2022-09-30T21:00:16.390Z,95.57
2022-09-30T21:02:24.478Z,95.53
2022-09-30T21:04:28.386Z,95.18
2022-09-30T21:06:33.505Z,95.70
2022-09-30T21:08:39.306Z,96.19
2022-09-30T21:10:43.022Z,95.83
2022-09-30T21:12:46.720Z,95.79
2022-09-30T21:14:50.684Z,96.11
2022-09-30T21:16:55.955Z,96.63
2022-09-30T21:19:00.250Z,95.95
2022-09-30T21:21:04.676Z,95.82
2022-09-30T21:23:08.484Z,96.36
2022-09-30T21:25:13.404Z,96.17
2022-09-30T21:27:17.437Z,95.99
2022-09-30T21:29:22.462Z,96.12
2022-09-30T21:31:27.775Z,96.04
2022-09-30T21:33:33.133Z,96.12
2022-09-30T21:35:36.997Z,95.78
2022-09-30T21:37:40.783Z,95.86
2022-09-30T21:39:48.258Z,95.97
2022-09-30T21:41:51.808Z,95.35
2022-09-30T21:43:56.037Z,95.21
2022-09-30T21:46:01.584Z,95.43
2022-09-30T21:48:10.581Z,96.21
2022-09-30T21:50:15.836Z,96.01
2022-09-30T21:52:19.533Z,95.75
2022-09-30T21:54:23.534Z,96.24
2022-09-30T21:56:28.279Z,96.27
2022-09-30T21:58:33.862Z,96.28
2022-09-30T22:00:37.771Z,96.35
2022-09-30T22:02:41.789Z,96.16
2022-09-30T22:04:45.632Z,96.39
2022-09-30T22:06:51.381Z,96.30
2022-09-30T22:08:55.192Z,96.58
2022-09-30T22:10:58.814Z,96.53
2022-09-30T22:13:03.059Z,96.54
2022-09-30T22:15:07.513Z,96.69
2022-09-30T22:17:11.255Z,96.97
2022-09-30T22:19:14.927Z,96.66
2022-09-30T22:21:18.857Z,96.33
2022-09-30T22:23:23.792Z,96.75
2022-09-30T22:25:30.878Z,96.92
2022-09-30T22:27:35.065Z,96.52
2022-09-30T22:29:38.698Z,96.99
2022-09-30T22:31:42.576Z,96.97
2022-09-30T22:34:04.358Z,96.74
2022-09-30T22:36:25.189Z,96.52
2022-09-30T22:38:30.713Z,96.80
2022-09-30T22:40:34.621Z,97.13
2022-09-30T22:42:38.922Z,96.78
2022-09-30T22:44:42.812Z,96.77
2022-09-30T22:46:46.765Z,96.97
2022-09-30T22:48:50.748Z,97.31
2022-09-30T22:50:54.566Z,97.10
2022-09-30T22:52:58.293Z,97.35
2022-09-30T22:55:03.424Z,97.73
2022-09-30T22:57:09.347Z,97.54
2022-09-30T22:59:13.091Z,96.87
2022-09-30T23:01:16.770Z,96.70
2022-09-30T23:03:20.289Z,97.36
2022-09-30T23:05:26.331Z,97.50
2022-09-30T23:07:29.914Z,97.21
2022-09-30T23:09:33.797Z,97.19
2022-09-30T23:11:39.441Z,97.14
2022-09-30T23:13:43.079Z,97.61
2022-09-30T23:15:46.583Z,97.64
2022-09-30T23:17:50.311Z,97.73
2022-09-30T23:19:54.253Z,97.31
2022-09-30T23:21:58.095Z,97.43
2022-09-30T23:24:02.271Z,97.12
2022-09-30T23:26:08.363Z,96.77
2022-09-30T23:28:13.865Z,97.07
2022-09-30T23:30:18.098Z,96.88
2022-09-30T23:32:21.775Z,96.75
2022-09-30T23:34:25.516Z,97.10
2022-09-30T23:36:31.444Z,96.83
2022-09-30T23:38:35.674Z,96.33
2022-09-30T23:40:44.355Z,96.16
2022-09-30T23:42:51.562Z,95.90
2022-09-30T23:44:56.952Z,95.64
2022-09-30T23:47:17.889Z,95.33
2022-09-30T23:49:21.599Z,95.49
2022-09-30T23:51:25.285Z,95.76
2022-09-30T23:53:29.227Z,95.80
2022-09-30T23:55:32.929Z,96.02
2022-09-30T23:57:36.503Z,96.26
2022-09-30T23:59:40.200Z,96.96
